sensor_id;sensor_type;location;lat;lon;timestamp;temperature;humidity
47174;DHT22;36730;49.036;9.094;2022-12-18T00:00:41;20.20;36.40
47174;DHT22;36730;49.036;9.094;2022-12-18T00:03:07;20.20;36.40
47174;DHT22;36730;49.036;9.094;2022-12-18T00:05:33;20.20;36.80
47174;DHT22;36730;49.036;9.094;2022-12-18T00:07:58;20.20;37.00
47174;DHT22;36730;49.036;9.094;2022-12-18T00:10:24;20.20;36.90
47174;DHT22;36730;49.036;9.094;2022-12-18T00:12:49;20.20;36.80
47174;DHT22;36730;49.036;9.094;2022-12-18T00:15:15;20.20;36.60
47174;DHT22;36730;49.036;9.094;2022-12-18T00:17:40;20.20;36.60
47174;DHT22;36730;49.036;9.094;2022-12-18T00:20:06;20.20;36.70
47174;DHT22;36730;49.036;9.094;2022-12-18T00:22:31;20.10;37.00
47174;DHT22;36730;49.036;9.094;2022-12-18T00:24:57;20.10;36.50
47174;DHT22;36730;49.036;9.094;2022-12-18T00:27:22;20.10;36.70
47174;DHT22;36730;49.036;9.094;2022-12-18T00:29:48;20.10;36.60
47174;DHT22;36730;49.036;9.094;2022-12-18T00:32:14;20.10;36.50
47174;DHT22;36730;49.036;9.094;2022-12-18T00:34:39;20.10;36.40
47174;DHT22;36730;49.036;9.094;2022-12-18T00:37:05;20.10;36.50
47174;DHT22;36730;49.036;9.094;2022-12-18T00:39:30;20.10;36.70
47174;DHT22;36730;49.036;9.094;2022-12-18T00:41:55;20.10;36.30
47174;DHT22;36730;49.036;9.094;2022-12-18T00:44:39;20.10;36.60
47174;DHT22;36730;49.036;9.094;2022-12-18T00:47:05;20.10;36.50
47174;DHT22;36730;49.036;9.094;2022-12-18T00:49:30;20.10;36.40
47174;DHT22;36730;49.036;9.094;2022-12-18T00:51:56;20.10;36.60
47174;DHT22;36730;49.036;9.094;2022-12-18T00:54:21;20.10;36.70
47174;DHT22;36730;49.036;9.094;2022-12-18T00:56:47;20.10;36.90
47174;DHT22;36730;49.036;9.094;2022-12-18T00:59:12;20.10;37.10
47174;DHT22;36730;49.036;9.094;2022-12-18T01:01:38;20.10;36.40
47174;DHT22;36730;49.036;9.094;2022-12-18T01:04:03;20.10;36.50
47174;DHT22;36730;49.036;9.094;2022-12-18T01:06:29;20.10;36.70
47174;DHT22;36730;49.036;9.094;2022-12-18T01:08:55;20.10;36.60
47174;DHT22;36730;49.036;9.094;2022-12-18T01:11:20;20.10;36.40
47174;DHT22;36730;49.036;9.094;2022-12-18T01:13:46;20.10;36.80
47174;DHT22;36730;49.036;9.094;2022-12-18T01:16:12;20.10;36.40
47174;DHT22;36730;49.036;9.094;2022-12-18T01:18:38;20.10;36.70
47174;DHT22;36730;49.036;9.094;2022-12-18T01:21:07;20.10;37.10
47174;DHT22;36730;49.036;9.094;2022-12-18T01:23:33;20.10;36.80
47174;DHT22;36730;49.036;9.094;2022-12-18T01:26:03;20.00;37.30
47174;DHT22;36730;49.036;9.094;2022-12-18T01:28:29;20.00;36.70
47174;DHT22;36730;49.036;9.094;2022-12-18T01:30:54;20.00;36.40
47174;DHT22;36730;49.036;9.094;2022-12-18T01:33:20;20.00;36.60
47174;DHT22;36730;49.036;9.094;2022-12-18T01:35:45;20.00;36.40
47174;DHT22;36730;49.036;9.094;2022-12-18T01:38:10;20.00;36.50
47174;DHT22;36730;49.036;9.094;2022-12-18T01:40:36;20.00;36.30
47174;DHT22;36730;49.036;9.094;2022-12-18T01:43:01;20.10;36.40
47174;DHT22;36730;49.036;9.094;2022-12-18T01:45:28;20.00;36.60
47174;DHT22;36730;49.036;9.094;2022-12-18T01:48:01;20.00;36.50
47174;DHT22;36730;49.036;9.094;2022-12-18T01:52:53;20.00;37.40
47174;DHT22;36730;49.036;9.094;2022-12-18T01:55:20;20.00;36.60
47174;DHT22;36730;49.036;9.094;2022-12-18T01:57:46;20.00;36.70
47174;DHT22;36730;49.036;9.094;2022-12-18T02:00:16;20.00;36.90
47174;DHT22;36730;49.036;9.094;2022-12-18T02:02:43;20.00;36.40
47174;DHT22;36730;49.036;9.094;2022-12-18T02:05:09;20.00;36.50
47174;DHT22;36730;49.036;9.094;2022-12-18T02:10:15;20.00;37.00
47174;DHT22;36730;49.036;9.094;2022-12-18T02:12:52;19.90;36.90
47174;DHT22;36730;49.036;9.094;2022-12-18T02:15:26;20.00;37.00
47174;DHT22;36730;49.036;9.094;2022-12-18T02:17:58;20.00;36.60
47174;DHT22;36730;49.036;9.094;2022-12-18T02:20:30;19.90;36.70
47174;DHT22;36730;49.036;9.094;2022-12-18T02:28:12;20.00;36.60
47174;DHT22;36730;49.036;9.094;2022-12-18T02:30:38;19.90;36.70
47174;DHT22;36730;49.036;9.094;2022-12-18T02:33:06;19.90;36.50
47174;DHT22;36730;49.036;9.094;2022-12-18T02:35:32;19.90;36.50
47174;DHT22;36730;49.036;9.094;2022-12-18T02:37:58;19.90;36.60
47174;DHT22;36730;49.036;9.094;2022-12-18T02:40:24;19.90;36.50
47174;DHT22;36730;49.036;9.094;2022-12-18T02:42:50;19.90;36.50
47174;DHT22;36730;49.036;9.094;2022-12-18T02:45:16;19.90;36.60
47174;DHT22;36730;49.036;9.094;2022-12-18T02:47:42;19.90;36.70
47174;DHT22;36730;49.036;9.094;2022-12-18T02:50:19;19.90;36.80
47174;DHT22;36730;49.036;9.094;2022-12-18T03:05:30;19.90;36.60
47174;DHT22;36730;49.036;9.094;2022-12-18T03:07:57;19.90;36.40
47174;DHT22;36730;49.036;9.094;2022-12-18T03:10:26;19.90;36.30
47174;DHT22;36730;49.036;9.094;2022-12-18T03:13:03;19.90;36.30
47174;DHT22;36730;49.036;9.094;2022-12-18T03:15:30;19.90;36.80
47174;DHT22;36730;49.036;9.094;2022-12-18T03:18:01;19.90;36.70
47174;DHT22;36730;49.036;9.094;2022-12-18T03:20:29;19.90;36.40
47174;DHT22;36730;49.036;9.094;2022-12-18T03:22:58;19.90;36.60
47174;DHT22;36730;49.036;9.094;2022-12-18T03:25:25;19.90;37.20
47174;DHT22;36730;49.036;9.094;2022-12-18T03:27:51;19.90;37.00
47174;DHT22;36730;49.036;9.094;2022-12-18T03:30:19;19.90;37.00
47174;DHT22;36730;49.036;9.094;2022-12-18T03:32:50;19.90;37.30
47174;DHT22;36730;49.036;9.094;2022-12-18T03:35:18;19.90;36.80
47174;DHT22;36730;49.036;9.094;2022-12-18T03:37:45;19.90;36.70
47174;DHT22;36730;49.036;9.094;2022-12-18T03:40:11;19.80;36.30
47174;DHT22;36730;49.036;9.094;2022-12-18T03:45:09;19.80;36.70
47174;DHT22;36730;49.036;9.094;2022-12-18T03:50:16;19.90;36.80
47174;DHT22;36730;49.036;9.094;2022-12-18T03:53:18;19.90;36.90
47174;DHT22;36730;49.036;9.094;2022-12-18T03:55:35;19.80;36.90
47174;DHT22;36730;49.036;9.094;2022-12-18T03:58:01;19.80;36.80
47174;DHT22;36730;49.036;9.094;2022-12-18T04:00:27;19.80;37.20
47174;DHT22;36730;49.036;9.094;2022-12-18T04:02:54;19.80;36.90
47174;DHT22;36730;49.036;9.094;2022-12-18T04:05:20;19.80;36.30
47174;DHT22;36730;49.036;9.094;2022-12-18T04:07:47;19.80;36.60
47174;DHT22;36730;49.036;9.094;2022-12-18T04:10:13;19.80;36.30
47174;DHT22;36730;49.036;9.094;2022-12-18T04:12:39;19.80;36.50
47174;DHT22;36730;49.036;9.094;2022-12-18T04:15:05;19.80;36.50
47174;DHT22;36730;49.036;9.094;2022-12-18T04:17:31;19.80;36.90
47174;DHT22;36730;49.036;9.094;2022-12-18T04:19:56;19.80;36.50
47174;DHT22;36730;49.036;9.094;2022-12-18T04:22:22;19.80;36.80
47174;DHT22;36730;49.036;9.094;2022-12-18T04:24:47;19.80;36.70
47174;DHT22;36730;49.036;9.094;2022-12-18T04:27:13;19.80;36.90
47174;DHT22;36730;49.036;9.094;2022-12-18T04:29:39;19.80;37.00
47174;DHT22;36730;49.036;9.094;2022-12-18T04:32:04;19.80;36.70
47174;DHT22;36730;49.036;9.094;2022-12-18T04:34:30;19.80;36.50
47174;DHT22;36730;49.036;9.094;2022-12-18T04:36:55;19.80;36.50
47174;DHT22;36730;49.036;9.094;2022-12-18T04:39:21;19.80;36.60
47174;DHT22;36730;49.036;9.094;2022-12-18T04:41:46;19.80;36.60
47174;DHT22;36730;49.036;9.094;2022-12-18T04:44:12;19.70;36.30
47174;DHT22;36730;49.036;9.094;2022-12-18T04:46:37;19.80;36.60
47174;DHT22;36730;49.036;9.094;2022-12-18T04:49:03;19.80;36.90
47174;DHT22;36730;49.036;9.094;2022-12-18T04:51:28;19.80;36.90
47174;DHT22;36730;49.036;9.094;2022-12-18T04:53:54;19.80;36.50
47174;DHT22;36730;49.036;9.094;2022-12-18T04:56:19;19.70;36.70
47174;DHT22;36730;49.036;9.094;2022-12-18T04:58:45;19.70;36.50
47174;DHT22;36730;49.036;9.094;2022-12-18T05:01:11;19.70;36.80
47174;DHT22;36730;49.036;9.094;2022-12-18T05:03:37;19.70;36.90
47174;DHT22;36730;49.036;9.094;2022-12-18T05:06:03;19.70;37.10
47174;DHT22;36730;49.036;9.094;2022-12-18T05:08:29;19.70;36.70
47174;DHT22;36730;49.036;9.094;2022-12-18T05:11:11;19.70;36.80
47174;DHT22;36730;49.036;9.094;2022-12-18T05:13:39;19.70;36.50
47174;DHT22;36730;49.036;9.094;2022-12-18T05:16:04;19.70;36.60
47174;DHT22;36730;49.036;9.094;2022-12-18T05:18:30;19.70;36.70
47174;DHT22;36730;49.036;9.094;2022-12-18T05:20:56;19.70;36.40
47174;DHT22;36730;49.036;9.094;2022-12-18T05:23:22;19.60;36.60
47174;DHT22;36730;49.036;9.094;2022-12-18T05:25:51;19.70;36.90
47174;DHT22;36730;49.036;9.094;2022-12-18T05:28:17;19.60;36.90
47174;DHT22;36730;49.036;9.094;2022-12-18T05:30:44;19.60;36.70
47174;DHT22;36730;49.036;9.094;2022-12-18T05:33:09;19.60;36.70
47174;DHT22;36730;49.036;9.094;2022-12-18T05:35:35;19.60;36.40
47174;DHT22;36730;49.036;9.094;2022-12-18T05:38:00;19.60;36.60
47174;DHT22;36730;49.036;9.094;2022-12-18T05:40:26;19.60;36.40
47174;DHT22;36730;49.036;9.094;2022-12-18T05:42:51;19.60;36.50
47174;DHT22;36730;49.036;9.094;2022-12-18T05:45:17;19.60;36.50
47174;DHT22;36730;49.036;9.094;2022-12-18T05:47:42;19.60;36.40
47174;DHT22;36730;49.036;9.094;2022-12-18T05:50:08;19.60;36.30
47174;DHT22;36730;49.036;9.094;2022-12-18T05:52:33;19.60;36.50
47174;DHT22;36730;49.036;9.094;2022-12-18T05:54:59;19.60;36.60
47174;DHT22;36730;49.036;9.094;2022-12-18T05:57:24;19.60;36.50
47174;DHT22;36730;49.036;9.094;2022-12-18T05:59:50;19.60;36.50
47174;DHT22;36730;49.036;9.094;2022-12-18T06:02:15;19.60;36.30
47174;DHT22;36730;49.036;9.094;2022-12-18T06:04:41;19.50;36.30
47174;DHT22;36730;49.036;9.094;2022-12-18T06:07:06;19.50;36.20
47174;DHT22;36730;49.036;9.094;2022-12-18T06:09:32;19.60;36.30
47174;DHT22;36730;49.036;9.094;2022-12-18T06:11:57;19.60;36.30
47174;DHT22;36730;49.036;9.094;2022-12-18T06:14:23;19.50;36.10
47174;DHT22;36730;49.036;9.094;2022-12-18T06:16:49;19.50;36.20
47174;DHT22;36730;49.036;9.094;2022-12-18T06:19:15;19.50;36.10
47174;DHT22;36730;49.036;9.094;2022-12-18T06:21:41;19.50;36.30
47174;DHT22;36730;49.036;9.094;2022-12-18T06:24:06;19.50;36.30
47174;DHT22;36730;49.036;9.094;2022-12-18T06:26:32;19.40;36.10
47174;DHT22;36730;49.036;9.094;2022-12-18T06:28:57;19.50;36.30
47174;DHT22;36730;49.036;9.094;2022-12-18T06:31:23;19.40;36.30
47174;DHT22;36730;49.036;9.094;2022-12-18T06:33:48;19.40;36.30
47174;DHT22;36730;49.036;9.094;2022-12-18T06:36:14;19.40;36.10
47174;DHT22;36730;49.036;9.094;2022-12-18T06:38:40;19.50;36.80
47174;DHT22;36730;49.036;9.094;2022-12-18T06:41:09;19.50;36.80
47174;DHT22;36730;49.036;9.094;2022-12-18T06:43:35;19.50;36.00
47174;DHT22;36730;49.036;9.094;2022-12-18T06:46:01;19.50;36.00
47174;DHT22;36730;49.036;9.094;2022-12-18T06:48:27;19.50;35.90
47174;DHT22;36730;49.036;9.094;2022-12-18T06:50:52;19.40;36.00
47174;DHT22;36730;49.036;9.094;2022-12-18T06:53:18;19.40;35.70
47174;DHT22;36730;49.036;9.094;2022-12-18T06:55:43;19.40;35.80
47174;DHT22;36730;49.036;9.094;2022-12-18T06:58:09;19.40;36.00
47174;DHT22;36730;49.036;9.094;2022-12-18T07:00:34;19.40;35.90
47174;DHT22;36730;49.036;9.094;2022-12-18T07:03:00;19.40;35.90
47174;DHT22;36730;49.036;9.094;2022-12-18T07:05:25;19.40;35.80
47174;DHT22;36730;49.036;9.094;2022-12-18T07:07:51;19.40;35.80
47174;DHT22;36730;49.036;9.094;2022-12-18T07:10:16;19.40;35.80
47174;DHT22;36730;49.036;9.094;2022-12-18T07:12:42;19.40;35.90
47174;DHT22;36730;49.036;9.094;2022-12-18T07:15:07;19.40;35.80
47174;DHT22;36730;49.036;9.094;2022-12-18T07:17:33;19.40;36.20
47174;DHT22;36730;49.036;9.094;2022-12-18T07:19:58;19.40;35.80
47174;DHT22;36730;49.036;9.094;2022-12-18T07:22:27;19.40;35.80
47174;DHT22;36730;49.036;9.094;2022-12-18T07:24:52;19.40;35.60
47174;DHT22;36730;49.036;9.094;2022-12-18T07:27:18;19.40;35.50
47174;DHT22;36730;49.036;9.094;2022-12-18T07:29:43;19.40;35.80
47174;DHT22;36730;49.036;9.094;2022-12-18T07:32:09;19.30;35.50
47174;DHT22;36730;49.036;9.094;2022-12-18T07:34:34;19.40;35.50
47174;DHT22;36730;49.036;9.094;2022-12-18T07:37:00;19.40;35.70
47174;DHT22;36730;49.036;9.094;2022-12-18T07:39:25;19.40;35.70
47174;DHT22;36730;49.036;9.094;2022-12-18T07:41:50;19.40;35.60
47174;DHT22;36730;49.036;9.094;2022-12-18T07:44:34;19.30;35.50
47174;DHT22;36730;49.036;9.094;2022-12-18T07:47:00;19.30;35.60
47174;DHT22;36730;49.036;9.094;2022-12-18T07:49:25;19.30;35.50
47174;DHT22;36730;49.036;9.094;2022-12-18T07:51:51;19.40;35.50
47174;DHT22;36730;49.036;9.094;2022-12-18T07:54:16;19.40;35.50
47174;DHT22;36730;49.036;9.094;2022-12-18T07:56:42;19.40;35.50
47174;DHT22;36730;49.036;9.094;2022-12-18T07:59:07;19.30;35.40
47174;DHT22;36730;49.036;9.094;2022-12-18T08:01:33;19.30;35.40
47174;DHT22;36730;49.036;9.094;2022-12-18T08:03:58;19.30;35.50
47174;DHT22;36730;49.036;9.094;2022-12-18T08:06:24;19.30;35.40
47174;DHT22;36730;49.036;9.094;2022-12-18T08:08:53;19.30;35.30
47174;DHT22;36730;49.036;9.094;2022-12-18T08:11:19;19.30;35.40
47174;DHT22;36730;49.036;9.094;2022-12-18T08:13:45;19.30;35.40
47174;DHT22;36730;49.036;9.094;2022-12-18T08:16:10;19.30;35.40
47174;DHT22;36730;49.036;9.094;2022-12-18T08:18:36;19.30;35.40
47174;DHT22;36730;49.036;9.094;2022-12-18T08:21:08;19.30;35.40
47174;DHT22;36730;49.036;9.094;2022-12-18T08:23:34;19.30;35.30
47174;DHT22;36730;49.036;9.094;2022-12-18T08:26:00;19.30;35.30
47174;DHT22;36730;49.036;9.094;2022-12-18T08:28:26;19.30;35.40
47174;DHT22;36730;49.036;9.094;2022-12-18T08:30:51;19.30;35.30
47174;DHT22;36730;49.036;9.094;2022-12-18T08:33:17;19.30;35.40
47174;DHT22;36730;49.036;9.094;2022-12-18T08:35:42;19.30;35.30
47174;DHT22;36730;49.036;9.094;2022-12-18T08:38:08;19.30;35.30
47174;DHT22;36730;49.036;9.094;2022-12-18T08:40:33;19.30;35.20
47174;DHT22;36730;49.036;9.094;2022-12-18T08:42:59;19.30;35.30
47174;DHT22;36730;49.036;9.094;2022-12-18T08:45:43;19.30;35.40
47174;DHT22;36730;49.036;9.094;2022-12-18T08:48:09;19.40;35.40
47174;DHT22;36730;49.036;9.094;2022-12-18T08:50:34;19.30;35.40
47174;DHT22;36730;49.036;9.094;2022-12-18T08:53:00;19.30;35.50
47174;DHT22;36730;49.036;9.094;2022-12-18T08:55:26;19.40;35.40
47174;DHT22;36730;49.036;9.094;2022-12-18T08:57:51;19.30;35.30
47174;DHT22;36730;49.036;9.094;2022-12-18T09:00:17;19.40;35.30
47174;DHT22;36730;49.036;9.094;2022-12-18T09:02:42;19.40;35.30
47174;DHT22;36730;49.036;9.094;2022-12-18T09:05:08;19.40;35.30
47174;DHT22;36730;49.036;9.094;2022-12-18T09:07:34;19.30;35.20
47174;DHT22;36730;49.036;9.094;2022-12-18T09:09:59;19.40;35.30
47174;DHT22;36730;49.036;9.094;2022-12-18T09:12:25;19.30;35.20
47174;DHT22;36730;49.036;9.094;2022-12-18T09:14:50;19.30;35.20
47174;DHT22;36730;49.036;9.094;2022-12-18T09:17:15;19.40;35.40
47174;DHT22;36730;49.036;9.094;2022-12-18T09:19:41;19.40;35.30
47174;DHT22;36730;49.036;9.094;2022-12-18T09:22:07;19.40;35.20
47174;DHT22;36730;49.036;9.094;2022-12-18T09:24:32;19.40;35.20
47174;DHT22;36730;49.036;9.094;2022-12-18T09:26:58;19.40;35.30
47174;DHT22;36730;49.036;9.094;2022-12-18T09:29:24;19.40;35.30
47174;DHT22;36730;49.036;9.094;2022-12-18T09:31:49;19.40;35.30
47174;DHT22;36730;49.036;9.094;2022-12-18T09:34:15;19.40;35.20
47174;DHT22;36730;49.036;9.094;2022-12-18T09:36:40;19.40;35.10
47174;DHT22;36730;49.036;9.094;2022-12-18T09:39:06;19.40;35.00
47174;DHT22;36730;49.036;9.094;2022-12-18T09:41:42;19.40;35.10
47174;DHT22;36730;49.036;9.094;2022-12-18T09:46:36;19.50;35.10
47174;DHT22;36730;49.036;9.094;2022-12-18T09:49:03;19.50;35.10
47174;DHT22;36730;49.036;9.094;2022-12-18T09:51:36;19.50;35.20
47174;DHT22;36730;49.036;9.094;2022-12-18T09:54:07;19.50;35.20
47174;DHT22;36730;49.036;9.094;2022-12-18T09:56:38;19.50;35.10
47174;DHT22;36730;49.036;9.094;2022-12-18T09:59:04;19.50;35.10
47174;DHT22;36730;49.036;9.094;2022-12-18T10:01:31;19.50;35.10
47174;DHT22;36730;49.036;9.094;2022-12-18T10:03:57;19.60;35.20
47174;DHT22;36730;49.036;9.094;2022-12-18T10:06:26;19.60;35.20
47174;DHT22;36730;49.036;9.094;2022-12-18T10:08:59;19.60;35.20
47174;DHT22;36730;49.036;9.094;2022-12-18T10:11:39;19.60;35.10
47174;DHT22;36730;49.036;9.094;2022-12-18T10:22:32;19.60;35.20
47174;DHT22;36730;49.036;9.094;2022-12-18T10:25:03;19.60;35.30
47174;DHT22;36730;49.036;9.094;2022-12-18T10:27:31;19.60;35.30
47174;DHT22;36730;49.036;9.094;2022-12-18T10:29:56;19.70;35.40
47174;DHT22;36730;49.036;9.094;2022-12-18T10:32:23;19.70;35.30
47174;DHT22;36730;49.036;9.094;2022-12-18T10:34:52;19.70;35.20
47174;DHT22;36730;49.036;9.094;2022-12-18T10:37:19;19.70;35.20
47174;DHT22;36730;49.036;9.094;2022-12-18T10:39:46;19.70;35.30
47174;DHT22;36730;49.036;9.094;2022-12-18T10:42:18;19.70;35.20
47174;DHT22;36730;49.036;9.094;2022-12-18T10:44:44;19.70;35.30
47174;DHT22;36730;49.036;9.094;2022-12-18T10:47:11;19.80;35.30
47174;DHT22;36730;49.036;9.094;2022-12-18T10:49:37;19.80;35.40
47174;DHT22;36730;49.036;9.094;2022-12-18T10:52:14;19.80;35.50
47174;DHT22;36730;49.036;9.094;2022-12-18T10:54:45;19.80;35.40
47174;DHT22;36730;49.036;9.094;2022-12-18T10:57:31;19.80;35.60
47174;DHT22;36730;49.036;9.094;2022-12-18T10:59:58;19.80;35.60
47174;DHT22;36730;49.036;9.094;2022-12-18T11:02:34;19.80;35.40
47174;DHT22;36730;49.036;9.094;2022-12-18T11:05:00;19.80;35.50
47174;DHT22;36730;49.036;9.094;2022-12-18T11:07:26;19.90;35.50
47174;DHT22;36730;49.036;9.094;2022-12-18T11:10:15;19.90;35.70
47174;DHT22;36730;49.036;9.094;2022-12-18T11:12:40;19.90;35.70
47174;DHT22;36730;49.036;9.094;2022-12-18T11:15:13;19.90;35.80
47174;DHT22;36730;49.036;9.094;2022-12-18T11:17:40;19.90;35.80
47174;DHT22;36730;49.036;9.094;2022-12-18T11:20:18;19.90;35.80
47174;DHT22;36730;49.036;9.094;2022-12-18T11:22:44;20.00;35.80
47174;DHT22;36730;49.036;9.094;2022-12-18T11:25:19;20.00;35.80
47174;DHT22;36730;49.036;9.094;2022-12-18T11:27:48;20.00;35.80
47174;DHT22;36730;49.036;9.094;2022-12-18T11:30:30;20.00;35.80
47174;DHT22;36730;49.036;9.094;2022-12-18T11:37:57;20.00;35.90
47174;DHT22;36730;49.036;9.094;2022-12-18T11:40:27;20.10;36.00
47174;DHT22;36730;49.036;9.094;2022-12-18T11:43:01;20.00;36.00
47174;DHT22;36730;49.036;9.094;2022-12-18T11:45:28;20.00;36.00
47174;DHT22;36730;49.036;9.094;2022-12-18T11:50:29;20.10;36.10
47174;DHT22;36730;49.036;9.094;2022-12-18T11:52:56;20.10;36.10
47174;DHT22;36730;49.036;9.094;2022-12-18T12:01:03;20.20;36.20
47174;DHT22;36730;49.036;9.094;2022-12-18T12:08:37;20.20;36.20
47174;DHT22;36730;49.036;9.094;2022-12-18T12:11:16;20.20;36.20
47174;DHT22;36730;49.036;9.094;2022-12-18T12:26:15;20.30;36.40
47174;DHT22;36730;49.036;9.094;2022-12-18T12:39:17;20.30;36.60
47174;DHT22;36730;49.036;9.094;2022-12-18T12:41:44;20.30;36.60
47174;DHT22;36730;49.036;9.094;2022-12-18T12:44:40;20.30;36.60
47174;DHT22;36730;49.036;9.094;2022-12-18T12:47:16;20.30;36.60
47174;DHT22;36730;49.036;9.094;2022-12-18T12:49:42;20.30;36.60
47174;DHT22;36730;49.036;9.094;2022-12-18T12:54:38;20.30;36.70
47174;DHT22;36730;49.036;9.094;2022-12-18T13:13:18;20.30;36.90
47174;DHT22;36730;49.036;9.094;2022-12-18T13:15:44;20.40;36.90
47174;DHT22;36730;49.036;9.094;2022-12-18T13:20:36;20.40;37.10
47174;DHT22;36730;49.036;9.094;2022-12-18T13:26:27;20.40;37.10
47174;DHT22;36730;49.036;9.094;2022-12-18T13:28:53;20.40;37.10
47174;DHT22;36730;49.036;9.094;2022-12-18T13:33:47;20.40;37.20
47174;DHT22;36730;49.036;9.094;2022-12-18T13:38:47;20.40;37.20
47174;DHT22;36730;49.036;9.094;2022-12-18T13:46:05;20.40;37.30
47174;DHT22;36730;49.036;9.094;2022-12-18T13:48:33;20.40;37.30
47174;DHT22;36730;49.036;9.094;2022-12-18T13:51:06;20.40;37.30
47174;DHT22;36730;49.036;9.094;2022-12-18T13:53:37;20.40;37.50
47174;DHT22;36730;49.036;9.094;2022-12-18T13:56:05;20.40;37.50
47174;DHT22;36730;49.036;9.094;2022-12-18T13:58:31;20.40;37.50
47174;DHT22;36730;49.036;9.094;2022-12-18T14:00:56;20.40;37.80
47174;DHT22;36730;49.036;9.094;2022-12-18T14:03:25;20.40;37.70
47174;DHT22;36730;49.036;9.094;2022-12-18T14:05:52;20.40;37.70
47174;DHT22;36730;49.036;9.094;2022-12-18T14:08:18;20.40;37.70
47174;DHT22;36730;49.036;9.094;2022-12-18T14:10:45;20.40;37.60
47174;DHT22;36730;49.036;9.094;2022-12-18T14:13:15;20.40;38.00
47174;DHT22;36730;49.036;9.094;2022-12-18T14:15:44;20.40;37.70
47174;DHT22;36730;49.036;9.094;2022-12-18T14:20:36;20.40;37.70
47174;DHT22;36730;49.036;9.094;2022-12-18T14:23:04;20.40;37.80
47174;DHT22;36730;49.036;9.094;2022-12-18T14:25:30;20.40;37.80
47174;DHT22;36730;49.036;9.094;2022-12-18T14:30:37;20.40;37.90
47174;DHT22;36730;49.036;9.094;2022-12-18T14:33:13;20.40;38.10
47174;DHT22;36730;49.036;9.094;2022-12-18T14:35:40;20.40;38.80
47174;DHT22;36730;49.036;9.094;2022-12-18T14:40:41;20.40;38.10
47174;DHT22;36730;49.036;9.094;2022-12-18T14:43:08;20.40;38.10
47174;DHT22;36730;49.036;9.094;2022-12-18T14:45:41;20.40;38.10
47174;DHT22;36730;49.036;9.094;2022-12-18T14:50:55;20.40;38.10
47174;DHT22;36730;49.036;9.094;2022-12-18T14:53:28;20.40;38.20
47174;DHT22;36730;49.036;9.094;2022-12-18T14:55:56;20.40;38.30
47174;DHT22;36730;49.036;9.094;2022-12-18T14:58:22;20.40;38.30
47174;DHT22;36730;49.036;9.094;2022-12-18T15:00:47;20.40;38.40
47174;DHT22;36730;49.036;9.094;2022-12-18T15:03:15;20.40;38.80
47174;DHT22;36730;49.036;9.094;2022-12-18T15:05:43;20.40;38.50
47174;DHT22;36730;49.036;9.094;2022-12-18T15:08:27;20.40;38.70
47174;DHT22;36730;49.036;9.094;2022-12-18T15:10:53;20.30;38.40
47174;DHT22;36730;49.036;9.094;2022-12-18T15:13:23;20.40;38.50
47174;DHT22;36730;49.036;9.094;2022-12-18T15:15:52;20.30;38.50
47174;DHT22;36730;49.036;9.094;2022-12-18T15:18:18;20.30;38.30
47174;DHT22;36730;49.036;9.094;2022-12-18T15:20:49;20.30;38.50
47174;DHT22;36730;49.036;9.094;2022-12-18T15:25:47;20.30;38.50
47174;DHT22;36730;49.036;9.094;2022-12-18T15:28:23;20.30;38.60
47174;DHT22;36730;49.036;9.094;2022-12-18T15:33:29;20.30;38.90
47174;DHT22;36730;49.036;9.094;2022-12-18T15:36:08;20.30;38.70
47174;DHT22;36730;49.036;9.094;2022-12-18T15:38:34;20.30;39.10
47174;DHT22;36730;49.036;9.094;2022-12-18T15:40:59;20.30;39.20
47174;DHT22;36730;49.036;9.094;2022-12-18T15:43:25;20.30;38.80
47174;DHT22;36730;49.036;9.094;2022-12-18T15:46:08;20.30;38.70
47174;DHT22;36730;49.036;9.094;2022-12-18T15:48:35;20.30;38.80
47174;DHT22;36730;49.036;9.094;2022-12-18T15:51:01;20.30;38.90
47174;DHT22;36730;49.036;9.094;2022-12-18T15:53:33;20.30;38.90
47174;DHT22;36730;49.036;9.094;2022-12-18T15:55:59;20.30;38.80
47174;DHT22;36730;49.036;9.094;2022-12-18T15:58:42;20.30;38.90
47174;DHT22;36730;49.036;9.094;2022-12-18T16:01:08;20.30;38.90
47174;DHT22;36730;49.036;9.094;2022-12-18T16:03:34;20.30;39.10
47174;DHT22;36730;49.036;9.094;2022-12-18T16:06:00;20.30;39.20
47174;DHT22;36730;49.036;9.094;2022-12-18T16:08:28;20.30;39.30
47174;DHT22;36730;49.036;9.094;2022-12-18T16:10:54;20.30;39.10
47174;DHT22;36730;49.036;9.094;2022-12-18T16:13:20;20.30;39.10
47174;DHT22;36730;49.036;9.094;2022-12-18T16:15:45;20.30;39.10
47174;DHT22;36730;49.036;9.094;2022-12-18T16:18:11;20.30;39.40
47174;DHT22;36730;49.036;9.094;2022-12-18T16:20:36;20.30;39.00
47174;DHT22;36730;49.036;9.094;2022-12-18T16:23:03;20.30;39.00
47174;DHT22;36730;49.036;9.094;2022-12-18T16:25:29;20.30;39.00
47174;DHT22;36730;49.036;9.094;2022-12-18T16:27:55;20.30;39.20
47174;DHT22;36730;49.036;9.094;2022-12-18T16:30:21;20.30;39.10
47174;DHT22;36730;49.036;9.094;2022-12-18T16:32:47;20.30;39.10
47174;DHT22;36730;49.036;9.094;2022-12-18T16:35:14;20.30;39.10
47174;DHT22;36730;49.036;9.094;2022-12-18T16:37:40;20.30;39.40
47174;DHT22;36730;49.036;9.094;2022-12-18T16:40:06;20.30;39.60
47174;DHT22;36730;49.036;9.094;2022-12-18T16:42:34;20.30;39.20
47174;DHT22;36730;49.036;9.094;2022-12-18T16:44:59;20.30;39.30
47174;DHT22;36730;49.036;9.094;2022-12-18T16:47:25;20.30;39.00
47174;DHT22;36730;49.036;9.094;2022-12-18T16:49:50;20.30;39.10
47174;DHT22;36730;49.036;9.094;2022-12-18T16:52:18;20.20;39.00
47174;DHT22;36730;49.036;9.094;2022-12-18T16:54:43;20.20;39.20
47174;DHT22;36730;49.036;9.094;2022-12-18T16:57:15;20.30;39.20
47174;DHT22;36730;49.036;9.094;2022-12-18T16:59:40;20.20;39.10
47174;DHT22;36730;49.036;9.094;2022-12-18T17:02:10;20.20;39.30
47174;DHT22;36730;49.036;9.094;2022-12-18T17:04:37;20.20;39.50
47174;DHT22;36730;49.036;9.094;2022-12-18T17:07:02;20.20;39.50
47174;DHT22;36730;49.036;9.094;2022-12-18T17:09:28;20.20;39.50
47174;DHT22;36730;49.036;9.094;2022-12-18T17:11:54;20.20;39.40
47174;DHT22;36730;49.036;9.094;2022-12-18T17:14:20;20.20;39.30
47174;DHT22;36730;49.036;9.094;2022-12-18T17:16:46;20.10;39.20
47174;DHT22;36730;49.036;9.094;2022-12-18T17:19:12;20.20;39.30
47174;DHT22;36730;49.036;9.094;2022-12-18T17:21:38;20.20;39.20
47174;DHT22;36730;49.036;9.094;2022-12-18T17:24:04;20.20;39.40
47174;DHT22;36730;49.036;9.094;2022-12-18T17:26:29;20.20;39.20
47174;DHT22;36730;49.036;9.094;2022-12-18T17:28:55;20.10;39.30
47174;DHT22;36730;49.036;9.094;2022-12-18T17:31:22;20.10;39.50
47174;DHT22;36730;49.036;9.094;2022-12-18T17:33:47;20.10;39.50
47174;DHT22;36730;49.036;9.094;2022-12-18T17:36:13;20.10;39.50
47174;DHT22;36730;49.036;9.094;2022-12-18T17:38:42;20.10;39.40
47174;DHT22;36730;49.036;9.094;2022-12-18T17:41:09;20.10;39.40